Kodiak, AK (99619)

7:59 PM AKST on March 02, 2015 (GMT -0900)
Bob Plyler on Selief Lane | Change Station
CLOSE
Current Station
Personal Weather Station
Location: Kodiak, AK
Elevation: 115 ft
Nearby Weather Stations

Elev 115 ft 57.80 °N, 152.39 °W | Updated 6 seconds ago

Light Rain
Light Rain
42.8 °F
Feels Like 41 °F
N
4.0
Wind Variable Wind from WNW
Gusts 5.4 mph

Today
High -- | Low -- °F
--% Chance of Precip.
Yesterday
High -- | Low -- °F
Precip. -- in
8:01 AM 6:43 PM
Waxing Gibbous, 94% visible
Pressure 29.76 in
Visibility 10.0 miles
Clouds Few 300 ft
Scattered Clouds 700 ft
Overcast 2400 ft
Windchill 41 °F
Dew Point 42 °F
Humidity 95%
Rainfall 0.00 in
Snow Depth Not available.
UV 0 out of 12
Pollen Not available.
Air Quality Not available.
Flu Activity Not available.
METAR PADQ 030453Z 10011KT 10SM -RA FEW003 SCT007 OVC024 06/05 A2976 RMK AO2 RAE0355B17 SLP077 P0000 T00560050 $

More Conditions Fewer Conditions

Pressure 29.76 in
Visibility 10.0 miles
Clouds Few 300 ft
Scattered Clouds 700 ft
Overcast 2400 ft
Windchill 41 °F
Dew Point 42 °F
Humidity 95%
Rainfall 0.00 in
Snow Depth Not available.
UV 0 out of 12
Pollen Not available.
Air Quality Not available.
Flu Activity Not available.
METAR PADQ 030453Z 10011KT 10SM -RA FEW003 SCT007 OVC024 06/05 A2976 RMK AO2 RAE0355B17 SLP077 P0000 T00560050 $

More Conditions Fewer Conditions

10-Day Weather Forecast

Almanac

Astronomy

Mar. 02, 2015 Rise Set
Actual Time
Civil Twilight
Nautical Twilight
Astronomical Twilight
Moon
Length of Visible Light
Length of Day
Tomorrow will be .
, % of the Moon is Illuminated

Today's Extremes

State Highs State Lows

Community

WunderPhotos

Upload Photos

1,802,064 photos uploaded!

WunderBlogs® & News

Nearby

Air Quality

  Air Quality AQ Index Pollutant
Not available.

Snow Depth

Station Depth Elevation

Earthquake Activity

City Distance Mag. Time & Date
Minimum magnitude displayed is 2.5.

Coastal Water Temperatures

Place Temperature

Nearby Weather Stations